createdAt,value
2023-03-17T00:01:54.662Z,53.00
2023-03-17T00:04:26.401Z,53.60
2023-03-17T00:06:54.379Z,53.10
2023-03-17T00:09:22.269Z,52.70
2023-03-17T00:11:50.023Z,53.50
2023-03-17T00:14:17.732Z,53.50
2023-03-17T00:16:49.556Z,54.10
2023-03-17T00:19:18.987Z,54.40
2023-03-17T00:21:48.632Z,54.40
2023-03-17T00:24:15.928Z,54.60
2023-03-17T00:26:43.315Z,55.70
2023-03-17T00:29:10.347Z,55.90
2023-03-17T00:31:38.133Z,56.00
2023-03-17T00:34:05.738Z,56.50
2023-03-17T00:36:34.194Z,57.00
2023-03-17T00:39:01.477Z,57.30
2023-03-17T00:41:29.489Z,57.50
2023-03-17T00:43:57.127Z,57.70
2023-03-17T00:46:29.080Z,57.80
2023-03-17T00:48:56.060Z,57.80
2023-03-17T00:51:23.487Z,57.70
2023-03-17T00:53:50.395Z,58.30
2023-03-17T00:56:20.678Z,57.60
2023-03-17T00:58:48.660Z,57.90
2023-03-17T01:01:15.881Z,58.10
2023-03-17T01:03:42.790Z,58.40
2023-03-17T01:06:12.723Z,58.00
2023-03-17T01:08:41.076Z,58.10
2023-03-17T01:11:21.171Z,58.30
2023-03-17T01:13:48.262Z,58.40
2023-03-17T01:16:15.691Z,58.60
2023-03-17T01:18:43.416Z,58.70
2023-03-17T01:21:10.394Z,58.70
2023-03-17T01:23:37.436Z,59.10
2023-03-17T01:26:04.786Z,59.20
2023-03-17T01:28:31.541Z,59.20
2023-03-17T01:30:58.690Z,59.60
2023-03-17T01:33:26.389Z,59.50
2023-03-17T01:35:53.301Z,59.50
2023-03-17T01:38:20.114Z,59.60
2023-03-17T01:40:51.779Z,60.00
2023-03-17T01:43:30.647Z,60.10
2023-03-17T01:46:20.901Z,60.60
2023-03-17T01:48:53.243Z,61.00
2023-03-17T01:51:44.500Z,61.10
2023-03-17T01:54:16.378Z,61.10
2023-03-17T01:56:45.934Z,61.30
2023-03-17T01:59:23.839Z,61.10
2023-03-17T02:01:54.652Z,61.50
2023-03-17T02:04:21.869Z,62.00
2023-03-17T02:06:58.062Z,62.20
2023-03-17T02:09:27.026Z,61.70
2023-03-17T02:11:55.574Z,62.10
2023-03-17T02:14:22.381Z,62.50
2023-03-17T02:16:49.437Z,62.10
2023-03-17T02:19:16.670Z,62.00
2023-03-17T02:21:46.530Z,62.50
2023-03-17T02:24:43.272Z,61.70
2023-03-17T02:27:18.535Z,62.90
2023-03-17T02:29:49.168Z,63.10
2023-03-17T02:32:18.654Z,62.90
2023-03-17T02:34:46.983Z,62.50
2023-03-17T02:37:15.095Z,62.20
2023-03-17T02:39:42.556Z,62.60
2023-03-17T02:42:09.958Z,62.50
2023-03-17T02:44:37.003Z,62.30
2023-03-17T02:47:03.995Z,62.90
2023-03-17T02:49:32.824Z,62.70
2023-03-17T02:51:59.679Z,62.90
2023-03-17T02:54:26.573Z,63.20
2023-03-17T02:56:53.311Z,63.90
2023-03-17T02:59:20.095Z,63.50
2023-03-17T03:01:48.518Z,63.30
2023-03-17T03:04:15.422Z,63.60
2023-03-17T03:06:44.516Z,62.90
2023-03-17T03:09:11.939Z,63.00
2023-03-17T03:11:39.501Z,63.40
2023-03-17T03:14:06.919Z,63.40
2023-03-17T03:16:33.940Z,63.30
2023-03-17T03:19:00.878Z,63.60
2023-03-17T03:21:27.663Z,63.40
2023-03-17T03:23:54.478Z,63.70
2023-03-17T03:26:21.422Z,63.50
2023-03-17T03:28:48.504Z,63.50
2023-03-17T03:31:16.076Z,63.20
2023-03-17T03:33:43.322Z,63.20
2023-03-17T03:36:10.302Z,63.40
2023-03-17T03:38:37.182Z,63.50
2023-03-17T03:41:04.141Z,63.60
2023-03-17T03:43:31.151Z,63.50
2023-03-17T03:45:58.084Z,63.30
2023-03-17T03:48:24.868Z,63.30
2023-03-17T03:50:55.391Z,63.40
2023-03-17T03:53:22.169Z,63.30
2023-03-17T03:55:48.891Z,63.90
2023-03-17T03:58:15.932Z,63.90
2023-03-17T04:00:42.705Z,64.00
2023-03-17T04:03:09.508Z,63.50
2023-03-17T04:05:36.255Z,63.60
2023-03-17T04:08:03.145Z,64.00
2023-03-17T04:10:30.163Z,63.80
2023-03-17T04:12:57.411Z,64.70
2023-03-17T04:15:24.498Z,63.70
2023-03-17T04:17:51.824Z,64.00
2023-03-17T04:20:19.247Z,63.70
2023-03-17T04:22:46.537Z,63.80
2023-03-17T04:25:14.724Z,63.50
2023-03-17T04:27:42.579Z,64.30
2023-03-17T04:30:13.542Z,63.50
2023-03-17T04:32:41.727Z,63.50
2023-03-17T04:35:12.935Z,63.70
2023-03-17T04:37:39.656Z,63.70
2023-03-17T04:40:10.032Z,63.90
2023-03-17T04:42:37.614Z,63.50
2023-03-17T04:45:06.416Z,63.90
2023-03-17T04:47:33.459Z,63.60
2023-03-17T04:50:00.692Z,64.10
2023-03-17T04:52:28.365Z,64.40
2023-03-17T04:54:55.222Z,63.80
2023-03-17T04:57:22.275Z,63.80
2023-03-17T04:59:49.091Z,63.90
2023-03-17T05:02:15.952Z,63.80
2023-03-17T05:04:43.146Z,63.80
2023-03-17T05:07:09.958Z,64.10
2023-03-17T05:09:37.083Z,63.60
2023-03-17T05:12:04.255Z,64.00
2023-03-17T05:14:31.114Z,63.90
2023-03-17T05:16:57.938Z,63.50
2023-03-17T05:19:24.796Z,63.70
2023-03-17T05:21:51.514Z,64.10
2023-03-17T05:24:18.249Z,63.90
2023-03-17T05:26:45.462Z,63.50
2023-03-17T05:29:12.237Z,63.30
2023-03-17T05:31:39.013Z,63.80
2023-03-17T05:34:06.051Z,63.30
2023-03-17T05:36:33.641Z,63.40
2023-03-17T05:39:00.368Z,63.10
2023-03-17T05:41:27.227Z,63.70
2023-03-17T05:43:54.100Z,63.50
2023-03-17T05:46:21.663Z,64.10
2023-03-17T05:48:48.861Z,63.80
2023-03-17T05:51:15.781Z,62.90
2023-03-17T05:53:43.344Z,63.40
2023-03-17T05:56:10.067Z,63.70
2023-03-17T05:58:36.864Z,63.50
2023-03-17T06:01:03.616Z,63.60
2023-03-17T06:03:30.601Z,63.20
2023-03-17T06:05:57.382Z,63.20
2023-03-17T06:08:24.481Z,63.80
2023-03-17T06:10:51.436Z,64.00
2023-03-17T06:13:18.229Z,64.80
2023-03-17T06:15:46.646Z,64.20
2023-03-17T06:18:13.670Z,64.20
2023-03-17T06:20:41.554Z,66.10
2023-03-17T06:23:08.473Z,64.90
2023-03-17T06:25:35.771Z,65.30
2023-03-17T06:28:04.232Z,65.40
2023-03-17T06:30:33.104Z,64.50
2023-03-17T06:33:01.144Z,66.00
2023-03-17T06:35:28.839Z,65.30
2023-03-17T06:37:55.996Z,64.40
2023-03-17T06:40:22.790Z,63.60
2023-03-17T06:42:49.619Z,63.10
2023-03-17T06:45:17.331Z,62.60
2023-03-17T06:47:44.092Z,62.50
2023-03-17T06:50:12.170Z,62.60
2023-03-17T06:52:39.957Z,62.50
2023-03-17T06:55:07.661Z,62.00
2023-03-17T06:57:34.538Z,62.30
2023-03-17T07:00:01.517Z,62.10
2023-03-17T07:02:28.509Z,62.30
2023-03-17T07:04:57.693Z,62.50
2023-03-17T07:07:25.138Z,61.90
2023-03-17T07:09:52.787Z,62.30
2023-03-17T07:12:20.146Z,62.50
2023-03-17T07:14:46.982Z,62.20
2023-03-17T07:17:14.626Z,62.60
2023-03-17T07:19:42.354Z,61.50
2023-03-17T07:22:12.524Z,63.20
2023-03-17T07:24:39.763Z,61.40
2023-03-17T07:27:07.014Z,62.60
2023-03-17T07:29:34.539Z,62.00
2023-03-17T07:32:02.072Z,61.70
2023-03-17T07:34:29.108Z,62.20
2023-03-17T07:36:55.956Z,63.10
2023-03-17T07:39:22.769Z,61.80
2023-03-17T07:41:55.077Z,61.70
2023-03-17T07:44:23.291Z,61.00
2023-03-17T07:46:51.512Z,60.90
2023-03-17T07:49:27.622Z,61.10
2023-03-17T07:52:01.073Z,60.80
2023-03-17T07:54:29.396Z,61.00
2023-03-17T07:56:56.897Z,61.30
2023-03-17T07:59:23.752Z,61.60
2023-03-17T08:01:50.786Z,60.30
2023-03-17T08:04:17.840Z,60.30
2023-03-17T08:06:46.935Z,61.40
2023-03-17T08:09:13.858Z,60.60
2023-03-17T08:11:40.672Z,60.80
2023-03-17T08:14:07.686Z,61.20
2023-03-17T08:16:34.575Z,61.70
2023-03-17T08:19:03.896Z,60.70
2023-03-17T08:21:31.337Z,59.70
2023-03-17T08:23:58.403Z,60.90
2023-03-17T08:26:25.532Z,59.90
2023-03-17T08:28:52.396Z,59.50
2023-03-17T08:31:22.679Z,60.10
2023-03-17T08:33:52.449Z,59.40
2023-03-17T08:36:20.665Z,58.30
2023-03-17T08:38:47.979Z,58.90
2023-03-17T08:41:18.313Z,59.90
2023-03-17T08:43:46.233Z,58.90
2023-03-17T08:46:20.337Z,57.80
2023-03-17T08:48:49.134Z,58.30
2023-03-17T08:51:18.731Z,57.40
2023-03-17T08:53:46.701Z,58.40
2023-03-17T08:56:14.662Z,57.00
2023-03-17T08:58:43.155Z,56.70
2023-03-17T09:01:10.774Z,56.10
2023-03-17T09:03:40.768Z,58.00
2023-03-17T09:06:11.101Z,57.80
2023-03-17T09:08:39.867Z,56.60
2023-03-17T09:11:07.596Z,56.50
2023-03-17T09:13:37.265Z,55.00
2023-03-17T09:16:04.136Z,53.50
2023-03-17T09:18:32.951Z,55.30
2023-03-17T09:21:00.178Z,55.20
2023-03-17T09:23:27.031Z,53.30
2023-03-17T09:25:53.915Z,53.20
2023-03-17T09:28:20.660Z,54.00
2023-03-17T09:30:47.662Z,53.00
2023-03-17T09:33:20.930Z,53.70
2023-03-17T09:35:48.044Z,53.90
2023-03-17T09:38:14.799Z,54.70
2023-03-17T09:40:54.402Z,55.50
2023-03-17T09:43:32.986Z,54.70
2023-03-17T09:46:24.834Z,54.30
2023-03-17T09:49:01.531Z,55.70
2023-03-17T09:51:31.579Z,55.20
2023-03-17T09:54:23.021Z,54.80
2023-03-17T09:56:58.695Z,54.70
2023-03-17T09:59:33.324Z,54.50
2023-03-17T10:02:01.703Z,55.00
2023-03-17T10:04:28.924Z,53.20
2023-03-17T10:07:04.627Z,53.70
2023-03-17T10:09:37.338Z,55.40
2023-03-17T10:12:15.282Z,51.40
2023-03-17T10:14:51.511Z,51.60
2023-03-17T10:17:22.302Z,51.50
2023-03-17T10:19:55.766Z,48.20
2023-03-17T10:22:32.361Z,51.40
2023-03-17T10:25:05.224Z,45.90
2023-03-17T10:27:37.239Z,46.10
2023-03-17T10:30:06.109Z,42.40
2023-03-17T10:32:37.654Z,41.80
2023-03-17T10:35:05.069Z,43.80
2023-03-17T10:37:36.573Z,42.00
2023-03-17T10:40:10.156Z,44.30
2023-03-17T10:42:47.687Z,42.10
2023-03-17T10:45:16.816Z,41.40
2023-03-17T10:47:49.115Z,40.60
2023-03-17T10:50:22.056Z,39.40
2023-03-17T10:53:13.433Z,39.40
2023-03-17T10:55:42.569Z,38.60
2023-03-17T10:58:19.388Z,40.50
2023-03-17T11:01:17.472Z,41.50
2023-03-17T11:03:44.408Z,41.10
2023-03-17T11:06:14.317Z,42.30
2023-03-17T11:08:53.743Z,43.10
2023-03-17T11:11:23.729Z,44.60
2023-03-17T11:13:50.561Z,43.70
2023-03-17T11:16:24.701Z,43.30
2023-03-17T11:18:56.552Z,38.40
2023-03-17T11:21:47.739Z,40.30
2023-03-17T11:24:19.819Z,39.90
2023-03-17T11:27:00.009Z,42.00
2023-03-17T11:29:35.735Z,42.50
2023-03-17T11:32:15.245Z,43.10
2023-03-17T11:35:14.062Z,41.20
2023-03-17T11:38:01.897Z,41.50
2023-03-17T11:40:51.507Z,41.90
2023-03-17T11:43:45.371Z,42.70
2023-03-17T11:46:45.036Z,42.90
2023-03-17T11:49:11.803Z,43.60
2023-03-17T11:52:05.730Z,45.20
2023-03-17T11:55:18.123Z,45.10
2023-03-17T11:57:57.586Z,45.80
2023-03-17T12:00:38.445Z,47.20
2023-03-17T12:03:40.210Z,46.20
2023-03-17T12:06:15.406Z,46.80
2023-03-17T12:08:45.921Z,47.30
2023-03-17T12:11:29.686Z,48.50
2023-03-17T12:14:06.852Z,47.00
2023-03-17T12:16:57.020Z,46.50
2023-03-17T12:19:29.785Z,45.30
2023-03-17T12:22:01.231Z,43.90
2023-03-17T12:24:40.379Z,45.90
2023-03-17T12:27:22.509Z,43.60
2023-03-17T12:29:57.640Z,42.10
2023-03-17T12:32:35.560Z,43.10
2023-03-17T12:35:34.099Z,44.90
2023-03-17T12:38:07.970Z,44.00
2023-03-17T12:40:53.885Z,43.00
2023-03-17T12:44:16.844Z,43.20
2023-03-17T12:46:47.481Z,41.30
2023-03-17T12:49:23.169Z,43.70
2023-03-17T12:52:10.371Z,43.20
2023-03-17T12:54:38.451Z,42.90
2023-03-17T12:57:31.600Z,43.80
2023-03-17T13:00:15.382Z,44.30
2023-03-17T13:02:49.582Z,43.50
2023-03-17T13:05:19.474Z,43.80
2023-03-17T13:07:53.993Z,44.50
2023-03-17T13:10:41.872Z,46.10
2023-03-17T13:13:11.727Z,45.80
2023-03-17T13:15:39.686Z,47.50
2023-03-17T13:18:13.677Z,46.50
2023-03-17T13:20:43.222Z,45.50
2023-03-17T13:23:19.229Z,47.20
2023-03-17T13:25:53.574Z,46.70
2023-03-17T13:28:27.565Z,47.40
2023-03-17T13:30:56.977Z,47.50
2023-03-17T13:33:31.465Z,49.00
2023-03-17T13:36:05.418Z,48.10
2023-03-17T13:38:35.467Z,48.60
2023-03-17T13:41:20.611Z,47.00
2023-03-17T13:44:03.396Z,49.00
2023-03-17T13:46:39.917Z,48.20
2023-03-17T13:49:18.969Z,49.40
2023-03-17T13:52:01.913Z,48.40
2023-03-17T13:54:28.926Z,48.20
2023-03-17T13:56:59.334Z,48.50
2023-03-17T13:59:50.293Z,48.40
2023-03-17T14:02:20.638Z,48.70
2023-03-17T14:04:59.382Z,48.70
2023-03-17T14:07:31.592Z,49.00
2023-03-17T14:10:05.695Z,48.30
2023-03-17T14:12:46.680Z,49.00
2023-03-17T14:15:34.976Z,50.20
2023-03-17T14:18:12.796Z,49.20
2023-03-17T14:20:39.662Z,49.50
2023-03-17T14:23:06.587Z,49.10
2023-03-17T14:25:39.062Z,50.00
2023-03-17T14:28:13.940Z,49.40
2023-03-17T14:30:50.280Z,50.70
2023-03-17T14:33:29.963Z,49.10
2023-03-17T14:35:59.174Z,49.80
2023-03-17T14:38:31.901Z,49.80
2023-03-17T14:41:18.239Z,50.10
2023-03-17T14:43:45.650Z,50.00
2023-03-17T14:46:32.574Z,51.00
2023-03-17T14:49:02.476Z,50.70
2023-03-17T14:51:36.540Z,51.00
2023-03-17T14:54:16.184Z,50.70
2023-03-17T14:56:48.569Z,50.10
2023-03-17T14:59:29.178Z,50.70
2023-03-17T15:01:58.375Z,50.70
2023-03-17T15:04:28.637Z,51.00
2023-03-17T15:07:04.969Z,51.10
2023-03-17T15:16:33.858Z,49.30
2023-03-17T15:19:28.903Z,49.50
2023-03-17T15:21:59.899Z,49.80
2023-03-17T15:24:40.490Z,50.00
2023-03-17T15:27:14.254Z,49.30
2023-03-17T15:29:41.690Z,49.60
2023-03-17T15:32:20.045Z,49.30
2023-03-17T15:34:51.812Z,49.30
2023-03-17T15:37:27.364Z,49.40
2023-03-17T15:39:55.718Z,50.10
2023-03-17T15:42:26.284Z,49.20
2023-03-17T15:44:54.023Z,49.70
2023-03-17T15:47:24.231Z,50.00
2023-03-17T15:49:51.899Z,50.20
2023-03-17T15:52:22.925Z,49.70
2023-03-17T15:54:49.819Z,50.00
2023-03-17T15:57:17.138Z,50.10
2023-03-17T15:59:44.591Z,50.90
2023-03-17T16:02:31.765Z,50.90
2023-03-17T16:05:01.475Z,50.70
2023-03-17T16:07:30.759Z,50.40
2023-03-17T16:09:57.952Z,50.80
2023-03-17T16:12:25.352Z,51.00
2023-03-17T16:14:52.157Z,51.00
2023-03-17T16:17:29.999Z,50.90
2023-03-17T16:19:57.445Z,52.00
2023-03-17T16:22:43.760Z,52.20
2023-03-17T16:25:19.169Z,51.80
2023-03-17T16:27:46.816Z,50.90
2023-03-17T16:30:26.005Z,52.00
2023-03-17T16:32:54.531Z,52.10
2023-03-17T16:35:23.785Z,51.90
2023-03-17T16:37:54.438Z,52.10
2023-03-17T16:40:21.629Z,52.10
2023-03-17T16:42:48.751Z,52.20
2023-03-17T16:45:34.793Z,51.90
2023-03-17T16:48:03.755Z,51.90
2023-03-17T16:50:33.818Z,51.60
2023-03-17T16:53:00.850Z,51.70
2023-03-17T16:55:29.321Z,52.60
2023-03-17T16:58:00.639Z,53.20
2023-03-17T17:00:30.467Z,53.00
2023-03-17T17:02:58.324Z,53.10
2023-03-17T17:05:31.145Z,53.40
2023-03-17T17:07:59.040Z,52.70
2023-03-17T17:10:28.853Z,52.80
2023-03-17T17:12:55.962Z,53.70
2023-03-17T17:15:23.821Z,53.50
2023-03-17T17:18:06.909Z,53.80
2023-03-17T17:20:38.589Z,54.20
2023-03-17T17:23:07.384Z,54.40
2023-03-17T17:25:34.259Z,54.80
2023-03-17T17:28:01.127Z,55.20
2023-03-17T17:30:30.094Z,54.70
2023-03-17T17:32:59.282Z,54.90
2023-03-17T17:35:30.714Z,54.90
2023-03-17T17:37:59.743Z,54.80
2023-03-17T17:40:26.969Z,55.70
2023-03-17T17:42:54.256Z,56.20
2023-03-17T17:45:21.495Z,55.50
2023-03-17T17:47:48.753Z,55.10
2023-03-17T17:50:26.377Z,54.30
2023-03-17T17:52:53.631Z,54.50
2023-03-17T17:55:21.334Z,55.00
2023-03-17T17:57:48.148Z,53.90
2023-03-17T18:00:17.370Z,54.50
2023-03-17T18:02:45.137Z,54.00
2023-03-17T18:05:12.953Z,54.00
2023-03-17T18:07:40.633Z,54.10
2023-03-17T18:10:08.302Z,53.50
2023-03-17T18:12:35.176Z,53.20
2023-03-17T18:15:01.995Z,52.90
2023-03-17T18:17:31.238Z,52.40
2023-03-17T18:19:59.310Z,52.90
2023-03-17T18:22:26.129Z,53.20
2023-03-17T18:24:53.242Z,53.40
2023-03-17T18:27:20.260Z,53.20
2023-03-17T18:29:47.408Z,53.20
2023-03-17T18:32:24.088Z,53.90
2023-03-17T18:35:03.193Z,54.30
2023-03-17T18:37:32.476Z,53.40
2023-03-17T18:40:12.900Z,54.10
2023-03-17T18:42:41.542Z,54.50
2023-03-17T18:45:09.861Z,54.80
2023-03-17T18:47:39.281Z,55.10
2023-03-17T18:50:08.735Z,54.70
2023-03-17T18:52:37.889Z,54.80
2023-03-17T18:55:05.439Z,54.40
2023-03-17T18:57:32.583Z,54.80
2023-03-17T18:59:59.544Z,54.90
2023-03-17T19:02:26.674Z,55.30
2023-03-17T19:04:53.473Z,55.50
2023-03-17T19:07:22.284Z,55.90
2023-03-17T19:09:49.365Z,56.10
2023-03-17T19:12:16.553Z,55.60
2023-03-17T19:14:43.818Z,55.90
2023-03-17T19:17:10.829Z,55.90
2023-03-17T19:19:37.798Z,55.50
2023-03-17T19:22:06.298Z,55.10
2023-03-17T19:24:35.650Z,55.70
2023-03-17T19:27:02.724Z,55.70
2023-03-17T19:29:29.700Z,55.60
2023-03-17T19:31:56.520Z,55.80
2023-03-17T19:34:23.340Z,56.20
2023-03-17T19:36:51.217Z,56.10
2023-03-17T19:39:18.811Z,55.70
2023-03-17T19:41:47.845Z,55.50
2023-03-17T19:44:14.677Z,56.50
2023-03-17T19:46:41.572Z,55.70
2023-03-17T19:49:08.368Z,55.70
2023-03-17T19:51:36.032Z,55.80
2023-03-17T19:54:03.127Z,55.90
2023-03-17T19:56:30.126Z,56.00
2023-03-17T19:58:56.839Z,56.40
2023-03-17T20:01:23.711Z,56.80
2023-03-17T20:03:50.566Z,56.60
2023-03-17T20:06:17.784Z,56.50
2023-03-17T20:08:44.964Z,57.80
2023-03-17T20:11:12.785Z,57.50
2023-03-17T20:13:41.003Z,56.70
2023-03-17T20:16:08.585Z,57.00
2023-03-17T20:18:36.363Z,57.10
2023-03-17T20:21:36.670Z,56.00
2023-03-17T20:24:03.736Z,56.00
2023-03-17T20:26:30.530Z,55.70
2023-03-17T20:28:57.492Z,55.60
2023-03-17T20:31:24.336Z,55.50
2023-03-17T20:33:51.581Z,55.60
2023-03-17T20:36:18.343Z,55.60
2023-03-17T20:38:45.390Z,54.70
2023-03-17T20:41:15.981Z,55.30
2023-03-17T20:43:43.404Z,56.20
2023-03-17T20:46:15.972Z,55.80
2023-03-17T20:48:44.199Z,56.00
2023-03-17T20:51:16.708Z,55.30
2023-03-17T20:53:48.930Z,55.60
2023-03-17T20:56:18.793Z,55.30
2023-03-17T20:58:46.961Z,55.50
2023-03-17T21:01:15.032Z,55.40
2023-03-17T21:03:43.261Z,54.90
2023-03-17T21:06:10.712Z,55.50
2023-03-17T21:08:38.606Z,55.80
2023-03-17T21:11:07.997Z,55.60
2023-03-17T21:13:35.542Z,56.00
2023-03-17T21:16:02.742Z,55.70
2023-03-17T21:18:30.018Z,56.10
2023-03-17T21:20:56.931Z,55.70
2023-03-17T21:23:23.920Z,55.70
2023-03-17T21:25:55.849Z,56.10
2023-03-17T21:28:23.108Z,56.00
2023-03-17T21:30:50.260Z,56.30
2023-03-17T21:33:17.144Z,56.00
2023-03-17T21:35:44.000Z,56.20
2023-03-17T21:38:11.039Z,57.30
2023-03-17T21:40:37.820Z,57.10
2023-03-17T21:43:05.645Z,57.00
2023-03-17T21:45:32.586Z,56.60
2023-03-17T21:47:59.377Z,56.80
2023-03-17T21:50:27.131Z,56.60
2023-03-17T21:52:54.133Z,57.10
2023-03-17T21:55:21.070Z,57.10
2023-03-17T21:57:47.815Z,57.10
2023-03-17T22:00:15.084Z,57.10
2023-03-17T22:02:42.776Z,57.00
2023-03-17T22:05:10.429Z,56.50
2023-03-17T22:07:38.539Z,56.30
2023-03-17T22:10:07.301Z,56.30
2023-03-17T22:12:37.809Z,56.60
2023-03-17T22:15:05.509Z,56.30
2023-03-17T22:17:32.525Z,56.80
2023-03-17T22:19:59.360Z,56.50
2023-03-17T22:22:26.407Z,56.30
2023-03-17T22:24:53.200Z,56.90
2023-03-17T22:27:19.964Z,56.90
2023-03-17T22:29:47.448Z,57.20
2023-03-17T22:32:14.407Z,56.90
2023-03-17T22:34:41.301Z,58.10
2023-03-17T22:37:08.367Z,56.90
2023-03-17T22:39:35.326Z,57.80
2023-03-17T22:42:02.413Z,58.30
2023-03-17T22:44:29.175Z,58.20
2023-03-17T22:46:56.291Z,57.40
2023-03-17T22:49:23.739Z,57.70
2023-03-17T22:51:50.611Z,57.10
2023-03-17T22:54:18.630Z,57.30
2023-03-17T22:56:45.395Z,57.60
2023-03-17T22:59:12.575Z,57.80
2023-03-17T23:01:39.564Z,58.20
2023-03-17T23:04:06.942Z,58.30
2023-03-17T23:06:35.230Z,58.20
2023-03-17T23:09:02.666Z,58.00
2023-03-17T23:11:29.462Z,57.80
2023-03-17T23:13:56.450Z,57.60
2023-03-17T23:16:23.600Z,59.10
2023-03-17T23:18:50.890Z,59.00
2023-03-17T23:21:21.207Z,58.90
2023-03-17T23:23:48.463Z,58.00
2023-03-17T23:26:16.099Z,59.40
2023-03-17T23:28:44.324Z,58.70
2023-03-17T23:31:11.179Z,58.80
2023-03-17T23:33:38.699Z,58.60
2023-03-17T23:36:07.185Z,59.10
2023-03-17T23:38:34.181Z,59.40
2023-03-17T23:41:02.060Z,59.60
2023-03-17T23:43:28.775Z,59.30
2023-03-17T23:45:55.656Z,59.60
2023-03-17T23:48:22.600Z,61.30
2023-03-17T23:50:52.742Z,60.60
2023-03-17T23:53:20.996Z,59.70
2023-03-17T23:55:47.838Z,59.00
2023-03-17T23:58:15.623Z,59.50
